Baileys Prairie, Texas
Current Conditions -  °F | °C
As of 3:53 PM on Wednesday 22 Oct 2014 (Local Time) from KLBX Reporting Station
Few Clouds Few Clouds  
Wind Chill: 78°   Ceiling: Unl
Heat Index: 80°   Visibility: 10mi
Dew Point: 61°   Wind: 6mph
Humidity: 56%   Direction: 80°E
Pressure: 30.03"   Gusts: 17mph
Location:  29.1898°N, 95.4754°W
Report Text: KLBX 222053Z AUTO 08005G15KT 10SM FEW045 26/16 A3003 RMK AO2 SLP168 T02560161 56016
Loading
Personal Weather Stations






























Interactive Weather Map
Tropical Storm Tracking
New forecast layout! Learn more

10-Day Weather Forecast

Advertisements
Track Severe Weather on mobile